createdAt,value
2022-09-30T00:01:29.519Z,99747.38
2022-09-30T00:03:57.668Z,99744.88
2022-09-30T00:06:26.817Z,99744.47
2022-09-30T00:08:53.527Z,99745.34
2022-09-30T00:11:27.527Z,99750.75
2022-09-30T00:13:55.494Z,99746.19
2022-09-30T00:16:23.458Z,99750.38
2022-09-30T00:18:51.205Z,99742.06
2022-09-30T00:21:18.108Z,99741.25
2022-09-30T00:23:45.521Z,99734.63
2022-09-30T00:26:15.049Z,99735.88
2022-09-30T00:28:43.594Z,99732.72
2022-09-30T00:31:16.121Z,99739.97
2022-09-30T00:33:44.517Z,99735.81
2022-09-30T00:36:11.441Z,99736.28
2022-09-30T00:38:37.952Z,99734.16
2022-09-30T00:41:04.762Z,99745.81
2022-09-30T00:43:51.461Z,99746.84
2022-09-30T00:46:30.104Z,99740.41
2022-09-30T00:48:58.429Z,99743.09
2022-09-30T00:51:32.747Z,99753.81
2022-09-30T00:54:03.318Z,99753.34
2022-09-30T00:56:37.351Z,99757.66
2022-09-30T00:59:13.498Z,99751.31
2022-09-30T01:01:42.021Z,99752.78
2022-09-30T01:04:17.689Z,99751.44
2022-09-30T01:06:45.280Z,99762.69
2022-09-30T01:09:12.297Z,99770.06
2022-09-30T01:11:39.616Z,99772.94
2022-09-30T01:14:12.542Z,99767.72
2022-09-30T01:16:42.069Z,99772.63
2022-09-30T01:19:24.591Z,99766.88
2022-09-30T01:22:10.000Z,99772.38
2022-09-30T01:25:04.647Z,99775.13
2022-09-30T01:27:56.375Z,99768.94
2022-09-30T01:31:00.654Z,99776.13
2022-09-30T01:34:07.791Z,99783.22
2022-09-30T01:37:03.417Z,99782.03
2022-09-30T01:40:27.796Z,99781.09
2022-09-30T01:43:11.278Z,99787.88
2022-09-30T01:45:46.451Z,99781.97
2022-09-30T01:48:24.076Z,99787.59
2022-09-30T01:51:09.986Z,99786.00
2022-09-30T01:54:00.192Z,99788.13
2022-09-30T01:56:41.716Z,99783.41
2022-09-30T01:59:17.402Z,99788.66
2022-09-30T02:01:50.210Z,99782.81
2022-09-30T02:04:33.429Z,99787.28
2022-09-30T02:07:05.325Z,99787.41
2022-09-30T02:09:41.297Z,99796.50
2022-09-30T02:12:15.345Z,99795.88
2022-09-30T02:14:46.595Z,99796.97
2022-09-30T02:17:19.743Z,99796.84
2022-09-30T02:19:56.665Z,99797.72
2022-09-30T02:22:33.390Z,99793.59
2022-09-30T02:25:03.851Z,99795.81
2022-09-30T02:27:40.378Z,99796.59
2022-09-30T02:30:09.301Z,99808.03
2022-09-30T02:32:44.090Z,99807.63
2022-09-30T02:35:18.531Z,99814.72
2022-09-30T02:37:55.632Z,99816.88
2022-09-30T02:40:32.138Z,99820.09
2022-09-30T02:42:59.013Z,99817.03
2022-09-30T02:45:27.111Z,99817.06
2022-09-30T02:48:12.843Z,99813.81
2022-09-30T02:50:47.521Z,99816.34
2022-09-30T02:53:30.816Z,99815.56
2022-09-30T02:56:19.432Z,99825.53
2022-09-30T02:58:47.474Z,99829.88
2022-09-30T03:01:16.074Z,99822.22
2022-09-30T03:03:57.057Z,99819.31
2022-09-30T03:06:24.793Z,99810.22
2022-09-30T03:08:52.967Z,99808.53
2022-09-30T03:11:25.795Z,99811.06
2022-09-30T03:14:14.750Z,99811.03
2022-09-30T03:17:10.949Z,99804.38
2022-09-30T03:20:08.865Z,99809.31
2022-09-30T03:23:03.144Z,99813.66
2022-09-30T03:25:51.299Z,99824.25
2022-09-30T03:28:24.003Z,99830.06
2022-09-30T03:31:01.880Z,99838.78
2022-09-30T03:33:59.127Z,99829.66
2022-09-30T03:36:55.556Z,99839.19
2022-09-30T03:39:35.746Z,99841.69
2022-09-30T03:42:11.088Z,99845.19
2022-09-30T03:45:00.388Z,99846.47
2022-09-30T03:47:29.573Z,99849.41
2022-09-30T03:50:01.369Z,99838.41
2022-09-30T03:52:32.019Z,99840.50
2022-09-30T03:55:02.632Z,99834.59
2022-09-30T03:57:30.470Z,99837.94
2022-09-30T03:59:58.467Z,99843.44
2022-09-30T04:02:26.046Z,99852.59
2022-09-30T04:04:53.266Z,99852.34
2022-09-30T04:07:19.839Z,99846.28
2022-09-30T04:09:46.512Z,99849.81
2022-09-30T04:12:13.331Z,99857.94
2022-09-30T04:14:39.917Z,99855.53
2022-09-30T04:17:07.069Z,99859.06
2022-09-30T04:19:38.155Z,99858.22
2022-09-30T04:22:04.744Z,99861.25
2022-09-30T04:24:31.575Z,99857.53
2022-09-30T04:26:58.339Z,99860.75
2022-09-30T04:29:25.276Z,99863.94
2022-09-30T04:31:52.111Z,99856.47
2022-09-30T04:34:18.773Z,99864.28
2022-09-30T04:36:45.799Z,99870.63
2022-09-30T04:39:12.549Z,99880.41
2022-09-30T04:41:39.138Z,99880.09
2022-09-30T04:44:06.303Z,99882.72
2022-09-30T04:46:36.593Z,99880.38
2022-09-30T04:49:08.998Z,99885.25
2022-09-30T04:51:36.439Z,99884.50
2022-09-30T04:54:03.536Z,99886.25
2022-09-30T04:56:30.135Z,99890.09
2022-09-30T04:58:57.325Z,99895.78
2022-09-30T05:01:24.467Z,99888.78
2022-09-30T05:03:51.202Z,99909.13
2022-09-30T05:06:18.023Z,99919.72
2022-09-30T05:08:46.113Z,99927.34
2022-09-30T05:11:18.513Z,99929.88
2022-09-30T05:13:45.936Z,99932.28
2022-09-30T05:16:13.278Z,99941.19
2022-09-30T05:18:45.441Z,99935.06
2022-09-30T05:21:14.571Z,99939.22
2022-09-30T05:23:41.251Z,99945.69
2022-09-30T05:26:12.310Z,99944.59
2022-09-30T05:28:39.856Z,99948.69
2022-09-30T05:31:06.678Z,99947.06
2022-09-30T05:33:35.670Z,99950.16
2022-09-30T05:36:05.381Z,99950.16
2022-09-30T05:38:32.165Z,99953.25
2022-09-30T05:40:59.184Z,99954.47
2022-09-30T05:43:25.747Z,99951.34
2022-09-30T05:45:56.796Z,99957.81
2022-09-30T05:48:25.433Z,99958.06
2022-09-30T05:51:00.862Z,99967.81
2022-09-30T05:53:28.409Z,99978.97
2022-09-30T05:55:55.217Z,99979.19
2022-09-30T05:58:21.885Z,99976.56
2022-09-30T06:00:49.505Z,99976.69
2022-09-30T06:03:17.426Z,99976.44
2022-09-30T06:05:45.736Z,99984.69
2022-09-30T06:08:13.587Z,99982.50
2022-09-30T06:10:41.896Z,99981.03
2022-09-30T06:13:08.493Z,99982.66
2022-09-30T06:15:38.049Z,99983.06
2022-09-30T06:18:04.880Z,99979.53
2022-09-30T06:20:31.484Z,99992.38
2022-09-30T06:23:01.824Z,99994.06
2022-09-30T06:25:30.129Z,99989.19
2022-09-30T06:27:58.158Z,99997.47
2022-09-30T06:30:25.672Z,99997.03
2022-09-30T06:32:54.023Z,99999.53
2022-09-30T06:35:21.710Z,99996.84
2022-09-30T06:37:51.315Z,99998.63
2022-09-30T06:40:18.666Z,99997.88
2022-09-30T06:42:45.204Z,99997.47
2022-09-30T06:45:22.867Z,100006.34
2022-09-30T06:48:00.930Z,100000.66
2022-09-30T06:50:28.295Z,100010.09
2022-09-30T06:52:59.346Z,100009.72
2022-09-30T06:55:27.248Z,100010.03
2022-09-30T06:57:55.377Z,100012.41
2022-09-30T07:00:23.450Z,100017.63
2022-09-30T07:02:50.503Z,100011.50
2022-09-30T07:05:17.631Z,100018.19
2022-09-30T07:07:44.223Z,100026.72
2022-09-30T07:10:11.158Z,100031.38
2022-09-30T07:12:38.433Z,100044.69
2022-09-30T07:15:05.313Z,100043.41
2022-09-30T07:17:32.175Z,100049.19
2022-09-30T07:19:59.419Z,100058.31
2022-09-30T07:22:34.255Z,100058.66
2022-09-30T07:25:04.302Z,100055.59
2022-09-30T07:27:33.236Z,100056.94
2022-09-30T07:32:47.772Z,100060.88
2022-09-30T07:35:14.736Z,100065.03
2022-09-30T07:37:41.351Z,100064.50
2022-09-30T07:40:09.353Z,100070.78
2022-09-30T07:42:44.710Z,100070.22
2022-09-30T07:45:12.624Z,100080.91
2022-09-30T07:47:39.185Z,100072.16
2022-09-30T07:50:06.237Z,100078.56
2022-09-30T07:52:33.121Z,100076.63
2022-09-30T07:54:59.679Z,100072.00
2022-09-30T07:57:26.208Z,100079.63
2022-09-30T07:59:52.757Z,100078.34
2022-09-30T08:02:19.461Z,100070.13
2022-09-30T08:04:46.859Z,100076.31
2022-09-30T08:07:15.486Z,100073.47
2022-09-30T08:09:42.494Z,100071.59
2022-09-30T08:12:09.312Z,100076.63
2022-09-30T08:14:35.870Z,100082.66
2022-09-30T08:17:02.619Z,100088.66
2022-09-30T08:19:30.984Z,100084.81
2022-09-30T08:21:58.527Z,100092.09
2022-09-30T08:24:26.615Z,100091.44
2022-09-30T08:26:54.354Z,100094.78
2022-09-30T08:29:42.536Z,100091.00
2022-09-30T08:32:07.954Z,100083.88
2022-09-30T08:34:35.508Z,100088.81
2022-09-30T08:37:08.760Z,100091.06
2022-09-30T08:39:37.415Z,100086.84
2022-09-30T08:42:36.758Z,100093.63
2022-09-30T08:45:25.381Z,100098.28
2022-09-30T08:48:21.510Z,100095.03
2022-09-30T08:50:48.010Z,100083.78
2022-09-30T08:53:26.419Z,100092.44
2022-09-30T08:55:57.250Z,100108.56
2022-09-30T08:58:30.479Z,100106.28
2022-09-30T09:01:05.360Z,100105.59
2022-09-30T09:03:34.141Z,100110.44
2022-09-30T09:06:15.327Z,100115.97
2022-09-30T09:09:19.893Z,100114.28
2022-09-30T09:11:53.496Z,100110.63
2022-09-30T09:14:41.481Z,100108.81
2022-09-30T09:17:29.410Z,100117.53
2022-09-30T09:20:13.032Z,100113.41
2022-09-30T09:22:40.881Z,100111.03
2022-09-30T09:25:17.339Z,100112.31
2022-09-30T09:28:04.405Z,100106.75
2022-09-30T09:30:43.450Z,100107.38
2022-09-30T09:33:23.047Z,100102.47
2022-09-30T09:36:15.586Z,100114.03
2022-09-30T09:38:55.519Z,100107.13
2022-09-30T09:41:50.002Z,100110.28
2022-09-30T09:44:42.825Z,100094.84
2022-09-30T09:47:15.606Z,100105.72
2022-09-30T09:49:44.752Z,100111.19
2022-09-30T09:52:12.700Z,100098.00
2022-09-30T09:54:45.432Z,100091.91
2022-09-30T09:57:16.738Z,100093.75
2022-09-30T09:59:58.469Z,100088.75
2022-09-30T10:02:30.732Z,100085.66
2022-09-30T10:05:03.446Z,100086.97
2022-09-30T10:07:34.021Z,100087.06
2022-09-30T10:10:06.418Z,100080.25
2022-09-30T10:12:33.058Z,100093.41
2022-09-30T10:15:03.514Z,100087.34
2022-09-30T10:17:35.595Z,100089.22
2022-09-30T10:20:27.117Z,100084.28
2022-09-30T10:23:02.663Z,100084.63
2022-09-30T10:25:29.692Z,100092.03
2022-09-30T10:28:02.294Z,100088.75
2022-09-30T10:30:50.144Z,100093.97
2022-09-30T10:33:41.992Z,100096.06
2022-09-30T10:36:13.641Z,100091.16
2022-09-30T10:39:01.131Z,100087.25
2022-09-30T10:41:34.083Z,100092.03
2022-09-30T10:44:03.986Z,100091.00
2022-09-30T10:46:35.548Z,100085.28
2022-09-30T10:49:10.618Z,100084.00
2022-09-30T10:51:38.789Z,100080.47
2022-09-30T10:54:06.336Z,100088.03
2022-09-30T10:56:38.217Z,100085.63
2022-09-30T10:59:16.415Z,100083.50
2022-09-30T11:01:58.144Z,100084.34
2022-09-30T11:04:34.971Z,100085.19
2022-09-30T11:07:33.632Z,100081.47
2022-09-30T11:10:42.068Z,100082.69
2022-09-30T11:13:28.154Z,100083.28
2022-09-30T11:16:23.247Z,100079.09
2022-09-30T11:19:07.115Z,100077.16
2022-09-30T11:21:57.857Z,100066.47
2022-09-30T11:24:57.396Z,100070.56
2022-09-30T11:27:33.350Z,100065.56
2022-09-30T11:30:19.031Z,100069.38
2022-09-30T11:33:16.723Z,100063.09
2022-09-30T11:35:54.083Z,100060.34
2022-09-30T11:38:53.099Z,100057.00
2022-09-30T11:41:32.541Z,100055.50
2022-09-30T11:44:18.080Z,100053.88
2022-09-30T11:47:02.357Z,100062.47
2022-09-30T11:49:50.950Z,100068.56
2022-09-30T11:52:29.006Z,100055.00
2022-09-30T11:55:36.329Z,100060.38
2022-09-30T11:58:28.596Z,100056.56
2022-09-30T12:01:01.090Z,100056.31
2022-09-30T12:03:39.469Z,100055.47
2022-09-30T12:06:22.147Z,100056.97
2022-09-30T12:08:59.734Z,100057.44
2022-09-30T12:11:52.277Z,100063.50
2022-09-30T12:14:33.285Z,100062.84
2022-09-30T12:17:03.601Z,100067.63
2022-09-30T12:19:36.995Z,100058.78
2022-09-30T12:22:18.293Z,100067.94
2022-09-30T12:24:45.843Z,100063.06
2022-09-30T12:27:24.447Z,100061.66
2022-09-30T12:30:18.153Z,100060.56
2022-09-30T12:33:07.037Z,100052.03
2022-09-30T12:36:13.655Z,100065.97
2022-09-30T12:39:02.803Z,100062.19
2022-09-30T12:41:57.157Z,100055.28
2022-09-30T12:44:45.306Z,100057.81
2022-09-30T12:47:19.797Z,100059.81
2022-09-30T12:49:48.436Z,100058.19
2022-09-30T12:52:19.683Z,100053.41
2022-09-30T12:54:54.524Z,100062.50
2022-09-30T12:57:26.798Z,100064.78
2022-09-30T12:59:57.643Z,100064.09
2022-09-30T13:02:36.515Z,100062.25
2022-09-30T13:05:31.414Z,100058.50
2022-09-30T13:08:25.049Z,100054.53
2022-09-30T13:11:00.372Z,100052.47
2022-09-30T13:13:33.871Z,100048.47
2022-09-30T13:16:06.477Z,100047.38
2022-09-30T13:18:33.063Z,100048.88
2022-09-30T13:21:05.550Z,100038.53
2022-09-30T13:23:42.586Z,100042.00
2022-09-30T13:26:36.469Z,100035.00
2022-09-30T13:29:05.804Z,100031.91
2022-09-30T13:31:52.439Z,100025.56
2022-09-30T13:34:23.212Z,100025.72
2022-09-30T13:37:02.108Z,100024.84
2022-09-30T13:39:48.356Z,100022.47
2022-09-30T13:42:15.089Z,100024.59
2022-09-30T13:45:03.311Z,100032.47
2022-09-30T13:47:52.095Z,100030.03
2022-09-30T13:50:36.798Z,100024.00
2022-09-30T13:53:12.441Z,100022.41
2022-09-30T13:55:46.733Z,100017.00
2022-09-30T13:58:13.339Z,100017.50
2022-09-30T14:01:12.683Z,100020.06
2022-09-30T14:03:55.836Z,100014.50
2022-09-30T14:06:45.680Z,100004.91
2022-09-30T14:09:38.947Z,100007.31
2022-09-30T14:12:16.606Z,100001.94
2022-09-30T14:15:01.205Z,100010.09
2022-09-30T14:17:47.481Z,100006.41
2022-09-30T14:20:41.608Z,100011.41
2022-09-30T14:23:16.893Z,100008.44
2022-09-30T14:25:59.753Z,100004.06
2022-09-30T14:28:43.593Z,100007.66
2022-09-30T14:31:16.357Z,100005.53
2022-09-30T14:33:48.934Z,100002.56
2022-09-30T14:36:21.955Z,100000.94
2022-09-30T14:39:00.243Z,99997.66
2022-09-30T14:41:30.806Z,99996.69
2022-09-30T14:44:08.084Z,99983.78
2022-09-30T14:46:39.243Z,99985.84
2022-09-30T14:49:13.374Z,99985.63
2022-09-30T14:51:48.233Z,99986.75
2022-09-30T14:54:23.534Z,99985.41
2022-09-30T14:56:54.340Z,99987.78
2022-09-30T14:59:27.822Z,99992.38
2022-09-30T15:02:20.247Z,99987.19
2022-09-30T15:05:00.435Z,99987.84
2022-09-30T15:07:28.211Z,99989.44
2022-09-30T15:10:01.580Z,99986.34
2022-09-30T15:12:28.663Z,99995.09
2022-09-30T15:14:57.652Z,99994.16
2022-09-30T15:17:42.221Z,99998.06
2022-09-30T15:20:28.148Z,99983.59
2022-09-30T15:22:56.453Z,99980.63
2022-09-30T15:25:24.162Z,99985.13
2022-09-30T15:27:51.424Z,99985.63
2022-09-30T15:30:18.272Z,99988.69
2022-09-30T15:32:46.187Z,99979.81
2022-09-30T15:35:20.626Z,99980.72
2022-09-30T15:37:48.433Z,99989.06
2022-09-30T15:40:36.804Z,99992.34
2022-09-30T15:43:11.545Z,99979.56
2022-09-30T15:45:41.232Z,99988.47
2022-09-30T15:48:36.002Z,99979.81
2022-09-30T15:51:24.528Z,99972.97
2022-09-30T15:53:51.480Z,99979.69
2022-09-30T15:56:17.964Z,99986.81
2022-09-30T15:58:56.208Z,99989.28
2022-09-30T16:01:26.717Z,99978.56
2022-09-30T16:03:57.931Z,99984.66
2022-09-30T16:06:52.532Z,99984.44
2022-09-30T16:09:47.986Z,99982.53
2022-09-30T16:12:14.503Z,99985.00
2022-09-30T16:14:59.987Z,99988.63
2022-09-30T16:17:32.595Z,99986.31
2022-09-30T16:20:00.800Z,99985.97
2022-09-30T16:22:42.483Z,99978.06
2022-09-30T16:25:19.609Z,99976.88
2022-09-30T16:27:46.731Z,99972.22
2022-09-30T16:30:16.034Z,99980.06
2022-09-30T16:32:47.489Z,99968.81
2022-09-30T16:35:23.176Z,99976.31
2022-09-30T16:37:51.649Z,99978.28
2022-09-30T16:40:23.304Z,99974.06
2022-09-30T16:42:50.996Z,99975.63
2022-09-30T16:45:18.404Z,99969.50
2022-09-30T16:47:45.088Z,99966.78
2022-09-30T16:50:25.640Z,99962.78
2022-09-30T16:52:52.211Z,99962.31
2022-09-30T16:55:18.890Z,99954.88
2022-09-30T16:57:45.474Z,99960.84
2022-09-30T17:00:17.854Z,99963.41
2022-09-30T17:02:46.381Z,99963.63
2022-09-30T17:05:16.001Z,99953.16
2022-09-30T17:07:43.813Z,99965.59
2022-09-30T17:10:18.787Z,99959.69
2022-09-30T17:12:45.527Z,99966.06
2022-09-30T17:15:13.037Z,99960.53
2022-09-30T17:17:39.749Z,99965.44
2022-09-30T17:20:06.945Z,99975.94
2022-09-30T17:22:34.121Z,99971.09
2022-09-30T17:25:00.668Z,99974.78
2022-09-30T17:27:27.924Z,99979.56
2022-09-30T17:29:55.432Z,99971.13
2022-09-30T17:32:22.012Z,99967.38
2022-09-30T17:34:48.705Z,99973.41
2022-09-30T17:37:15.276Z,99972.59
2022-09-30T17:39:41.837Z,99969.03
2022-09-30T17:42:34.716Z,99964.47
2022-09-30T17:45:01.436Z,99970.94
2022-09-30T17:47:27.987Z,99973.91
2022-09-30T17:49:54.873Z,99981.06
2022-09-30T17:52:24.209Z,99980.81
2022-09-30T17:54:52.730Z,99984.72
2022-09-30T17:57:21.249Z,99975.97
2022-09-30T17:59:47.848Z,99978.38
2022-09-30T18:02:17.548Z,99981.72
2022-09-30T18:04:44.470Z,99977.44
2022-09-30T18:07:11.113Z,99980.38
2022-09-30T18:09:39.085Z,99977.44
2022-09-30T18:12:07.214Z,99977.81
2022-09-30T18:14:38.284Z,99977.75
2022-09-30T18:17:06.085Z,99976.09
2022-09-30T18:19:34.796Z,99981.31
2022-09-30T18:22:02.123Z,99981.31
2022-09-30T18:24:48.021Z,99979.34
2022-09-30T18:27:15.069Z,99979.84
2022-09-30T18:29:41.942Z,99967.19
2022-09-30T18:32:08.855Z,99970.69
2022-09-30T18:34:35.499Z,99982.38
2022-09-30T18:37:06.571Z,99965.97
2022-09-30T18:39:35.473Z,99969.47
2022-09-30T18:42:03.241Z,99964.06
2022-09-30T18:44:32.245Z,99964.34
2022-09-30T18:47:00.037Z,99961.09
2022-09-30T18:49:26.638Z,99961.31
2022-09-30T18:51:53.542Z,99957.66
2022-09-30T18:54:21.749Z,99957.31
2022-09-30T18:56:48.316Z,99945.16
2022-09-30T18:59:18.182Z,99942.63
2022-09-30T19:01:48.256Z,99946.88
2022-09-30T19:04:15.668Z,99941.53
2022-09-30T19:06:44.431Z,99949.63
2022-09-30T19:09:14.244Z,99945.81
2022-09-30T19:11:42.588Z,99951.47
2022-09-30T19:14:14.316Z,99940.84
2022-09-30T19:16:41.936Z,99946.56
2022-09-30T19:19:11.927Z,99949.28
2022-09-30T19:21:39.370Z,99944.03
2022-09-30T19:24:07.967Z,99941.47
2022-09-30T19:26:36.462Z,99943.53
2022-09-30T19:29:05.351Z,99948.97
2022-09-30T19:31:33.824Z,99935.41
2022-09-30T19:34:01.579Z,99933.88
2022-09-30T19:36:31.237Z,99926.53
2022-09-30T19:39:09.874Z,99931.78
2022-09-30T19:41:37.604Z,99926.28
2022-09-30T19:44:05.952Z,99927.34
2022-09-30T19:46:32.629Z,99926.09
2022-09-30T19:48:59.277Z,99930.03
2022-09-30T19:51:29.054Z,99922.78
2022-09-30T19:54:04.763Z,99923.34
2022-09-30T19:56:33.509Z,99916.88
2022-09-30T19:59:00.633Z,99916.25
2022-09-30T20:01:28.480Z,99911.88
2022-09-30T20:03:57.497Z,99913.03
2022-09-30T20:06:24.228Z,99909.44
2022-09-30T20:08:53.477Z,99905.09
2022-09-30T20:11:21.835Z,99898.22
2022-09-30T20:14:13.522Z,99898.41
2022-09-30T20:16:42.470Z,99906.91
2022-09-30T20:19:10.193Z,99896.31
2022-09-30T20:21:41.918Z,99892.84
2022-09-30T20:24:14.491Z,99887.28
2022-09-30T20:26:42.240Z,99889.13
2022-09-30T20:29:10.734Z,99892.16
2022-09-30T20:31:40.740Z,99884.59
2022-09-30T20:34:09.551Z,99898.16
2022-09-30T20:36:36.368Z,99890.25
2022-09-30T20:39:03.516Z,99883.66
2022-09-30T20:41:35.132Z,99891.16
2022-09-30T20:44:06.942Z,99890.25
2022-09-30T20:46:34.575Z,99887.66
2022-09-30T20:49:02.277Z,99896.28
2022-09-30T20:51:30.720Z,99886.19
2022-09-30T20:53:59.804Z,99888.72
2022-09-30T20:56:44.125Z,99886.19
2022-09-30T20:59:17.029Z,99882.53
2022-09-30T21:01:43.707Z,99879.22
2022-09-30T21:04:10.295Z,99877.75
2022-09-30T21:06:37.285Z,99884.16
2022-09-30T21:09:03.966Z,99871.34
2022-09-30T21:11:31.288Z,99870.22
2022-09-30T21:13:58.251Z,99867.53
2022-09-30T21:16:25.377Z,99867.78
2022-09-30T21:18:53.346Z,99865.97
2022-09-30T21:21:24.572Z,99866.25
2022-09-30T21:23:55.458Z,99871.00
2022-09-30T21:26:22.045Z,99871.59
2022-09-30T21:28:50.609Z,99866.25
2022-09-30T21:31:24.736Z,99863.19
2022-09-30T21:33:53.456Z,99862.63
2022-09-30T21:36:21.247Z,99860.69
2022-09-30T21:38:50.087Z,99854.00
2022-09-30T21:41:17.458Z,99862.56
2022-09-30T21:43:44.441Z,99845.31
2022-09-30T21:46:13.137Z,99844.78
2022-09-30T21:48:39.754Z,99848.09
2022-09-30T21:51:07.621Z,99841.16
2022-09-30T21:53:34.203Z,99844.75
2022-09-30T21:56:02.453Z,99843.88
2022-09-30T21:58:31.653Z,99838.75
2022-09-30T22:01:02.627Z,99836.50
2022-09-30T22:03:35.863Z,99833.94
2022-09-30T22:06:03.463Z,99833.47
2022-09-30T22:08:35.346Z,99837.16
2022-09-30T22:11:06.709Z,99828.22
2022-09-30T22:13:33.295Z,99827.16
2022-09-30T22:16:05.572Z,99828.41
2022-09-30T22:18:32.948Z,99829.97
2022-09-30T22:21:08.552Z,99826.38
2022-09-30T22:23:35.123Z,99827.41
2022-09-30T22:26:22.549Z,99819.91
2022-09-30T22:28:55.165Z,99820.56
2022-09-30T22:31:27.066Z,99820.84
2022-09-30T22:34:26.217Z,99811.16
2022-09-30T22:37:11.804Z,99817.88
2022-09-30T22:39:38.347Z,99817.69
2022-09-30T22:42:04.936Z,99814.88
2022-09-30T22:44:36.769Z,99804.97
2022-09-30T22:47:04.605Z,99806.03
2022-09-30T22:49:32.502Z,99803.44
2022-09-30T22:52:00.812Z,99797.66
2022-09-30T22:54:29.065Z,99793.69
2022-09-30T22:56:58.305Z,99793.03
2022-09-30T22:59:26.022Z,99795.97
2022-09-30T23:01:52.734Z,99794.06
2022-09-30T23:04:19.722Z,99784.69
2022-09-30T23:06:52.049Z,99785.44
2022-09-30T23:09:20.719Z,99786.28
2022-09-30T23:11:48.381Z,99790.75
2022-09-30T23:14:15.122Z,99782.25
2022-09-30T23:16:42.693Z,99782.81
2022-09-30T23:19:10.501Z,99780.97
2022-09-30T23:21:37.409Z,99775.34
2022-09-30T23:24:04.679Z,99779.44
2022-09-30T23:26:31.376Z,99773.69
2022-09-30T23:29:00.079Z,99772.31
2022-09-30T23:31:27.575Z,99766.09
2022-09-30T23:34:01.242Z,99767.59
2022-09-30T23:36:30.973Z,99762.75
2022-09-30T23:39:04.176Z,99754.81
2022-09-30T23:41:32.710Z,99751.09
2022-09-30T23:43:59.760Z,99750.59
2022-09-30T23:46:26.848Z,99753.91
2022-09-30T23:48:53.473Z,99743.63
2022-09-30T23:51:20.363Z,99750.50
2022-09-30T23:53:46.992Z,99749.44
2022-09-30T23:56:16.296Z,99738.63
2022-09-30T23:58:44.582Z,99746.81
